createdAt,value
2019-05-28T00:00:42.257Z,84.13
2019-05-28T00:03:08.696Z,84.02
2019-05-28T00:05:34.832Z,84.18
2019-05-28T00:08:01.057Z,83.58
2019-05-28T00:10:27.199Z,83.98
2019-05-28T00:12:53.326Z,84.69
2019-05-28T00:15:20.251Z,84.27
2019-05-28T00:17:46.473Z,83.74
2019-05-28T00:20:13.116Z,84.84
2019-05-28T00:22:39.239Z,87.66
2019-05-28T00:25:06.789Z,88.55
2019-05-28T00:27:33.031Z,86.01
2019-05-28T00:29:59.239Z,83.68
2019-05-28T00:32:25.479Z,84.89
2019-05-28T00:34:51.734Z,85.76
2019-05-28T00:37:17.851Z,86.61
2019-05-28T00:39:44.080Z,86.55
2019-05-28T00:42:10.319Z,85.85
2019-05-28T00:44:36.539Z,85.55
2019-05-28T00:47:02.772Z,84.70
2019-05-28T00:49:28.983Z,84.78
2019-05-28T00:51:55.219Z,86.96
2019-05-28T00:54:21.438Z,86.52
2019-05-28T00:56:48.612Z,88.03
2019-05-28T00:59:16.526Z,87.73
2019-05-28T01:01:42.768Z,87.04
2019-05-28T01:04:08.992Z,86.96
2019-05-28T01:06:35.132Z,85.13
2019-05-28T01:09:01.374Z,85.16
2019-05-28T01:11:27.616Z,85.16
2019-05-28T01:13:53.857Z,85.33
2019-05-28T01:16:20.069Z,85.20
2019-05-28T01:18:46.308Z,86.34
2019-05-28T01:21:12.432Z,87.20
2019-05-28T01:23:38.581Z,88.00
2019-05-28T01:26:04.738Z,88.16
2019-05-28T01:28:30.867Z,87.55
2019-05-28T01:31:00.643Z,87.18
2019-05-28T01:33:25.237Z,87.70
2019-05-28T01:35:51.461Z,88.48
2019-05-28T01:38:17.709Z,89.24
2019-05-28T01:40:43.818Z,88.75
2019-05-28T01:43:09.961Z,88.74
2019-05-28T01:45:36.190Z,88.95
2019-05-28T01:48:02.527Z,89.16
2019-05-28T01:50:28.750Z,88.80
2019-05-28T01:52:54.888Z,87.30
2019-05-28T01:55:21.127Z,86.68
2019-05-28T01:57:47.348Z,86.95
2019-05-28T02:00:14.408Z,86.60
2019-05-28T02:02:40.538Z,86.44
2019-05-28T02:05:07.486Z,86.26
2019-05-28T02:07:33.709Z,86.66
2019-05-28T02:09:59.941Z,88.35
2019-05-28T02:12:26.083Z,88.77
2019-05-28T02:14:52.324Z,88.94
2019-05-28T02:17:18.464Z,88.69
2019-05-28T02:19:44.684Z,88.03
2019-05-28T02:22:10.826Z,88.60
2019-05-28T02:24:36.948Z,88.25
2019-05-28T02:27:03.200Z,88.28
2019-05-28T02:29:29.420Z,87.58
2019-05-28T02:31:55.557Z,87.63
2019-05-28T02:34:21.779Z,88.32
2019-05-28T02:36:47.913Z,87.30
2019-05-28T02:39:14.144Z,86.63
2019-05-28T02:41:40.397Z,85.36
2019-05-28T02:44:06.513Z,85.27
2019-05-28T02:46:32.751Z,85.09
2019-05-28T02:48:58.973Z,86.32
2019-05-28T02:51:25.207Z,87.48
2019-05-28T02:53:51.846Z,87.41
2019-05-28T02:56:18.284Z,87.12
2019-05-28T02:58:46.512Z,87.38
2019-05-28T03:01:12.751Z,87.39
2019-05-28T03:03:39.798Z,87.19
2019-05-28T03:06:06.368Z,87.17
2019-05-28T03:08:32.606Z,87.33
2019-05-28T03:11:03.549Z,87.15
2019-05-28T03:13:28.073Z,87.29
2019-05-28T03:15:57.796Z,87.36
2019-05-28T03:18:26.837Z,87.36
2019-05-28T03:20:55.063Z,87.14
2019-05-28T03:23:24.118Z,87.05
2019-05-28T03:25:50.343Z,86.43
2019-05-28T03:28:16.474Z,87.03
2019-05-28T03:30:42.602Z,86.31
2019-05-28T03:33:08.909Z,86.36
2019-05-28T03:35:37.778Z,86.30
2019-05-28T03:38:04.013Z,85.24
2019-05-28T03:40:44.044Z,85.70
2019-05-28T03:43:10.489Z,86.04
2019-05-28T03:45:36.710Z,85.54
2019-05-28T03:48:03.158Z,85.50
2019-05-28T03:50:29.388Z,85.41
2019-05-28T03:52:55.636Z,84.59
2019-05-28T03:55:21.766Z,85.48
2019-05-28T03:57:47.891Z,85.21
2019-05-28T04:00:14.309Z,85.51
2019-05-28T04:02:40.433Z,85.66
2019-05-28T04:05:06.873Z,86.00
2019-05-28T04:07:33.090Z,86.60
2019-05-28T04:09:59.221Z,86.66
2019-05-28T04:12:25.343Z,87.03
2019-05-28T04:14:51.481Z,86.10
2019-05-28T04:17:17.599Z,85.74
2019-05-28T04:19:43.860Z,85.55
2019-05-28T04:22:10.003Z,84.73
2019-05-28T04:24:36.233Z,84.33
2019-05-28T04:27:02.364Z,84.56
2019-05-28T04:29:28.630Z,84.17
2019-05-28T04:31:54.850Z,83.84
2019-05-28T04:34:21.106Z,83.76
2019-05-28T04:36:47.231Z,83.79
2019-05-28T04:39:13.473Z,83.38
2019-05-28T04:41:39.708Z,82.79
2019-05-28T04:44:05.833Z,82.49
2019-05-28T04:46:32.086Z,82.56
2019-05-28T04:48:58.308Z,82.22
2019-05-28T04:51:24.573Z,81.84
2019-05-28T04:53:50.704Z,82.09
2019-05-28T04:56:16.831Z,81.89
2019-05-28T04:58:42.951Z,81.66
2019-05-28T05:01:09.180Z,81.69
2019-05-28T05:03:35.415Z,81.50
2019-05-28T05:06:01.567Z,81.26
2019-05-28T05:08:27.706Z,80.60
2019-05-28T05:10:53.916Z,80.23
2019-05-28T05:13:20.149Z,79.73
2019-05-28T05:15:47.210Z,79.84
2019-05-28T05:18:13.652Z,79.38
2019-05-28T05:20:39.799Z,79.86
2019-05-28T05:23:06.040Z,79.76
2019-05-28T05:25:32.172Z,79.42
2019-05-28T05:27:58.322Z,80.01
2019-05-28T05:30:24.455Z,79.91
2019-05-28T05:32:50.580Z,79.74
2019-05-28T05:35:16.813Z,79.92
2019-05-28T05:37:42.968Z,80.27
2019-05-28T05:40:09.608Z,80.32
2019-05-28T05:42:35.857Z,80.13
2019-05-28T05:45:07.230Z,80.45
2019-05-28T05:47:31.757Z,80.83
2019-05-28T05:49:58.018Z,81.96
2019-05-28T05:52:24.267Z,81.39
2019-05-28T05:54:50.511Z,81.39
2019-05-28T05:57:16.841Z,81.33
2019-05-28T05:59:43.084Z,81.76
2019-05-28T06:02:09.205Z,82.25
2019-05-28T06:04:35.459Z,82.06
2019-05-28T06:07:01.593Z,81.60
2019-05-28T06:09:27.830Z,82.15
2019-05-28T06:11:54.056Z,82.46
2019-05-28T06:14:20.303Z,82.34
2019-05-28T06:16:46.541Z,82.71
2019-05-28T06:19:12.806Z,82.39
2019-05-28T06:21:38.936Z,82.76
2019-05-28T06:24:05.178Z,82.71
2019-05-28T06:26:31.403Z,83.03
2019-05-28T06:28:57.672Z,83.14
2019-05-28T06:31:23.892Z,82.71
2019-05-28T06:33:56.947Z,83.47
2019-05-28T06:36:18.082Z,84.08
2019-05-28T06:38:44.220Z,83.15
2019-05-28T06:41:10.463Z,83.08
2019-05-28T06:43:36.702Z,82.94
2019-05-28T06:46:03.023Z,82.86
2019-05-28T06:48:29.305Z,83.09
2019-05-28T06:50:55.615Z,83.14
2019-05-28T06:53:21.871Z,82.89
2019-05-28T06:55:48.003Z,83.02
2019-05-28T06:58:14.132Z,81.75
2019-05-28T07:00:40.271Z,83.06
2019-05-28T07:03:06.500Z,83.19
2019-05-28T07:05:32.758Z,83.53
2019-05-28T07:07:58.888Z,83.35
2019-05-28T07:10:25.127Z,83.29
2019-05-28T07:12:51.257Z,83.87
2019-05-28T07:15:17.514Z,83.57
2019-05-28T07:17:43.642Z,82.89
2019-05-28T07:20:10.087Z,82.51
2019-05-28T07:22:36.314Z,81.90
2019-05-28T07:25:04.752Z,81.65
2019-05-28T07:27:30.982Z,81.31
2019-05-28T07:29:57.247Z,80.69
2019-05-28T07:32:23.460Z,81.53
2019-05-28T07:34:49.740Z,82.15
2019-05-28T07:37:15.972Z,84.05
2019-05-28T07:39:42.093Z,82.35
2019-05-28T07:42:08.346Z,82.79
2019-05-28T07:44:34.575Z,81.82
2019-05-28T07:47:00.817Z,81.70
2019-05-28T07:49:27.035Z,81.86
2019-05-28T07:51:53.280Z,81.62
2019-05-28T07:54:19.425Z,82.00
2019-05-28T07:56:45.658Z,80.85
2019-05-28T07:59:11.882Z,80.29
2019-05-28T08:01:38.133Z,80.62
2019-05-28T08:04:04.260Z,80.10
2019-05-28T08:06:30.507Z,80.66
2019-05-28T08:08:56.714Z,80.24
2019-05-28T08:11:22.960Z,80.06
2019-05-28T08:13:52.440Z,80.11
2019-05-28T08:16:19.046Z,80.25
2019-05-28T08:18:45.268Z,81.71
2019-05-28T08:21:11.624Z,80.20
2019-05-28T08:23:37.915Z,80.83
2019-05-28T08:26:04.175Z,80.35
2019-05-28T08:28:30.408Z,79.24
2019-05-28T08:31:13.722Z,78.59
2019-05-28T08:33:24.708Z,78.58
2019-05-28T08:35:51.691Z,79.38
2019-05-28T08:38:18.178Z,78.82
2019-05-28T08:40:44.405Z,78.85
2019-05-28T08:43:10.582Z,80.51
2019-05-28T08:45:36.790Z,79.91
2019-05-28T08:48:03.024Z,80.68
2019-05-28T08:50:34.511Z,80.56
2019-05-28T08:52:57.310Z,80.38
2019-05-28T08:55:23.533Z,80.00
2019-05-28T08:57:49.767Z,79.99
2019-05-28T09:00:19.598Z,79.51
2019-05-28T09:02:45.832Z,80.42
2019-05-28T09:05:25.713Z,80.27
2019-05-28T09:07:40.348Z,79.71
2019-05-28T09:10:06.657Z,79.75
2019-05-28T09:12:32.936Z,80.45
2019-05-28T09:14:59.049Z,80.52
2019-05-28T09:17:25.179Z,81.27
2019-05-28T09:19:51.421Z,81.92
2019-05-28T09:22:25.759Z,81.94
2019-05-28T09:24:45.797Z,82.00
2019-05-28T09:27:11.926Z,82.63
2019-05-28T09:29:38.164Z,82.98
2019-05-28T09:32:04.304Z,83.66
2019-05-28T09:34:30.546Z,83.98
2019-05-28T09:36:56.669Z,84.03
2019-05-28T09:39:22.917Z,84.70
2019-05-28T09:41:49.063Z,85.63
2019-05-28T09:44:15.308Z,85.25
2019-05-28T09:46:41.444Z,86.07
2019-05-28T09:49:07.684Z,85.75
2019-05-28T09:51:33.932Z,85.56
2019-05-28T09:54:00.189Z,85.77
2019-05-28T09:56:26.417Z,85.87
2019-05-28T09:58:52.661Z,85.88
2019-05-28T10:01:19.108Z,85.78
2019-05-28T10:03:45.341Z,86.38
2019-05-28T10:06:16.835Z,87.60
2019-05-28T10:08:39.627Z,88.19
2019-05-28T10:11:05.750Z,88.89
2019-05-28T10:13:39.116Z,88.04
2019-05-28T10:16:00.136Z,88.50
2019-05-28T10:18:26.371Z,89.01
2019-05-28T10:20:52.630Z,89.00
2019-05-28T10:23:18.852Z,89.51
2019-05-28T10:25:45.095Z,89.75
2019-05-28T10:28:11.545Z,90.02
2019-05-28T10:30:37.788Z,89.71
2019-05-28T10:33:04.021Z,89.76
2019-05-28T10:35:31.876Z,89.49
2019-05-28T10:37:58.121Z,89.86
2019-05-28T10:40:24.359Z,89.97
2019-05-28T10:42:50.622Z,89.91
2019-05-28T10:45:17.452Z,90.24
2019-05-28T10:47:43.717Z,90.99
2019-05-28T10:50:11.723Z,91.44
2019-05-28T10:52:37.971Z,91.21
2019-05-28T10:55:05.420Z,91.62
2019-05-28T10:57:31.655Z,91.42
2019-05-28T10:59:57.781Z,91.82
2019-05-28T11:02:24.030Z,91.59
2019-05-28T11:04:50.596Z,91.67
2019-05-28T11:07:17.119Z,91.06
2019-05-28T11:09:43.375Z,90.63
2019-05-28T11:12:09.596Z,91.16
2019-05-28T11:14:35.830Z,91.22
2019-05-28T11:17:02.072Z,91.81
2019-05-28T11:19:28.409Z,91.83
2019-05-28T11:21:54.531Z,90.52
2019-05-28T11:24:20.776Z,91.35
2019-05-28T11:26:46.900Z,91.20
2019-05-28T11:29:13.045Z,91.15
2019-05-28T11:31:39.283Z,91.10
2019-05-28T11:34:05.628Z,91.21
2019-05-28T11:36:31.769Z,91.61
2019-05-28T11:38:58.010Z,91.12
2019-05-28T11:41:40.962Z,90.85
2019-05-28T11:43:52.416Z,90.79
2019-05-28T11:46:18.641Z,90.87
2019-05-28T11:48:44.888Z,90.34
2019-05-28T11:51:11.133Z,90.43
2019-05-28T11:53:37.364Z,89.93
2019-05-28T11:56:03.688Z,89.92
2019-05-28T11:58:29.834Z,90.14
2019-05-28T12:00:55.979Z,90.12
2019-05-28T12:03:22.104Z,90.62
2019-05-28T12:05:48.348Z,90.34
2019-05-28T12:08:14.572Z,90.92
2019-05-28T12:10:40.711Z,91.18
2019-05-28T12:13:10.529Z,91.06
2019-05-28T12:15:35.086Z,91.49
2019-05-28T12:18:01.317Z,91.25
2019-05-28T12:20:28.163Z,91.40
2019-05-28T12:23:09.706Z,91.38
2019-05-28T12:25:24.160Z,90.55
2019-05-28T12:27:50.385Z,90.77
2019-05-28T12:30:18.668Z,90.80
2019-05-28T12:32:45.061Z,90.38
2019-05-28T12:35:27.399Z,90.26
2019-05-28T12:37:48.258Z,90.87
2019-05-28T12:40:09.042Z,90.94
2019-05-28T12:42:35.301Z,90.98
2019-05-28T12:45:09.263Z,91.23
2019-05-28T12:47:30.099Z,91.15
2019-05-28T12:50:14.496Z,90.54
2019-05-28T12:52:24.376Z,90.46
2019-05-28T12:54:50.631Z,90.59
2019-05-28T12:57:16.756Z,91.14
2019-05-28T12:59:42.978Z,91.23
2019-05-28T13:02:09.226Z,90.15
2019-05-28T13:04:35.365Z,90.78
2019-05-28T13:07:01.500Z,90.73
2019-05-28T13:09:27.728Z,91.42
2019-05-28T13:11:53.864Z,91.56
2019-05-28T13:14:20.093Z,90.75
2019-05-28T13:16:46.457Z,90.77
2019-05-28T13:19:12.683Z,91.03
2019-05-28T13:21:38.908Z,91.07
2019-05-28T13:24:05.064Z,90.80
2019-05-28T13:26:31.211Z,90.93
2019-05-28T13:28:57.334Z,90.77
2019-05-28T13:31:23.482Z,90.79
2019-05-28T13:33:49.734Z,90.78
2019-05-28T13:36:15.990Z,90.21
2019-05-28T13:38:42.949Z,90.59
2019-05-28T13:41:09.373Z,90.01
2019-05-28T13:43:35.637Z,90.72
2019-05-28T13:46:01.860Z,91.66
2019-05-28T13:48:28.117Z,91.50
2019-05-28T13:50:54.668Z,91.73
2019-05-28T13:53:21.000Z,91.45
2019-05-28T13:55:47.231Z,91.66
2019-05-28T13:58:13.371Z,90.73
2019-05-28T14:00:39.595Z,90.95
2019-05-28T14:03:06.017Z,90.79
2019-05-28T14:05:32.307Z,90.70
2019-05-28T14:07:58.543Z,91.09
2019-05-28T14:10:24.671Z,91.24
2019-05-28T14:12:51.037Z,90.58
2019-05-28T14:15:18.747Z,90.54
2019-05-28T14:17:45.015Z,90.49
2019-05-28T14:20:11.959Z,90.55
2019-05-28T14:22:38.184Z,90.93
2019-05-28T14:25:05.535Z,90.54
2019-05-28T14:27:31.760Z,90.94
2019-05-28T14:29:58.010Z,90.90
2019-05-28T14:32:24.135Z,90.75
2019-05-28T14:34:52.466Z,90.50
2019-05-28T14:37:19.356Z,90.52
2019-05-28T14:39:45.613Z,90.27
2019-05-28T14:42:11.843Z,90.01
2019-05-28T14:44:38.092Z,89.74
2019-05-28T14:47:04.309Z,89.88
2019-05-28T14:49:30.559Z,89.94
2019-05-28T14:51:56.799Z,90.03
2019-05-28T14:54:22.934Z,89.76
2019-05-28T14:56:49.213Z,90.35
2019-05-28T14:59:15.602Z,89.98
2019-05-28T15:01:41.816Z,89.68
2019-05-28T15:04:08.072Z,89.75
2019-05-28T15:06:34.200Z,90.22
2019-05-28T15:09:00.381Z,89.53
2019-05-28T15:11:26.584Z,89.22
2019-05-28T15:13:52.796Z,89.49
2019-05-28T15:16:19.036Z,89.23
2019-05-28T15:18:45.267Z,88.93
2019-05-28T15:21:11.423Z,88.83
2019-05-28T15:23:37.546Z,88.53
2019-05-28T15:26:03.788Z,89.25
2019-05-28T15:28:29.914Z,89.19
2019-05-28T15:30:56.174Z,89.25
2019-05-28T15:33:22.306Z,89.66
2019-05-28T15:35:48.598Z,89.42
2019-05-28T15:38:14.724Z,89.91
2019-05-28T15:40:40.855Z,89.84
2019-05-28T15:43:07.080Z,89.84
2019-05-28T15:45:33.251Z,90.09
2019-05-28T15:47:59.372Z,89.54
2019-05-28T15:50:25.511Z,89.77
2019-05-28T15:52:51.740Z,89.27
2019-05-28T15:55:18.060Z,89.10
2019-05-28T15:57:44.202Z,89.00
2019-05-28T16:00:17.062Z,89.02
2019-05-28T16:02:43.220Z,89.09
2019-05-28T16:05:09.443Z,89.71
2019-05-28T16:07:35.705Z,88.89
2019-05-28T16:10:04.143Z,89.48
2019-05-28T16:12:30.276Z,89.71
2019-05-28T16:14:56.506Z,89.75
2019-05-28T16:17:22.654Z,89.50
2019-05-28T16:19:48.872Z,89.34
2019-05-28T16:22:15.117Z,88.80
2019-05-28T16:24:41.250Z,88.94
2019-05-28T16:27:07.413Z,89.57
2019-05-28T16:29:33.632Z,89.47
2019-05-28T16:31:59.903Z,89.71
2019-05-28T16:34:26.136Z,89.74
2019-05-28T16:36:52.286Z,89.95
2019-05-28T16:39:22.342Z,89.67
2019-05-28T16:41:48.699Z,89.90
2019-05-28T16:44:14.952Z,90.25
2019-05-28T16:46:41.178Z,89.70
2019-05-28T16:49:07.426Z,89.36
2019-05-28T16:51:33.658Z,89.40
2019-05-28T16:54:17.817Z,89.13
2019-05-28T16:56:27.840Z,89.44
2019-05-28T16:58:54.085Z,89.58
2019-05-28T17:01:22.733Z,89.13
2019-05-28T17:03:48.471Z,89.30
2019-05-28T17:06:14.699Z,89.55
2019-05-28T17:08:40.952Z,89.88
2019-05-28T17:11:07.285Z,89.72
2019-05-28T17:13:33.697Z,89.71
2019-05-28T17:15:59.836Z,89.08
2019-05-28T17:18:26.086Z,88.99
2019-05-28T17:20:52.306Z,88.85
2019-05-28T17:23:18.545Z,88.65
2019-05-28T17:25:44.793Z,89.02
2019-05-28T17:28:11.040Z,88.80
2019-05-28T17:30:37.276Z,88.77
2019-05-28T17:33:03.516Z,89.20
2019-05-28T17:35:29.652Z,88.90
2019-05-28T17:37:55.879Z,88.51
2019-05-28T17:40:22.382Z,88.79
2019-05-28T17:42:48.752Z,88.73
2019-05-28T17:45:16.606Z,88.61
2019-05-28T17:47:44.298Z,88.45
2019-05-28T17:50:11.841Z,88.65
2019-05-28T17:52:38.037Z,88.54
2019-05-28T17:55:06.090Z,88.19
2019-05-28T17:57:32.327Z,88.90
2019-05-28T17:59:58.568Z,87.67
2019-05-28T18:02:24.803Z,88.01
2019-05-28T18:04:50.939Z,88.18
2019-05-28T18:07:17.168Z,88.45
2019-05-28T18:09:43.300Z,88.62
2019-05-28T18:12:09.421Z,88.56
2019-05-28T18:14:35.664Z,88.26
2019-05-28T18:17:01.990Z,88.30
2019-05-28T18:19:28.368Z,88.44
2019-05-28T18:21:54.636Z,88.85
2019-05-28T18:24:21.064Z,88.63
2019-05-28T18:26:47.311Z,88.75
2019-05-28T18:29:15.703Z,88.78
2019-05-28T18:31:41.966Z,88.79
2019-05-28T18:34:08.208Z,88.75
2019-05-28T18:36:34.459Z,88.80
2019-05-28T18:39:00.594Z,88.87
2019-05-28T18:41:26.844Z,88.91
2019-05-28T18:43:53.421Z,88.92
2019-05-28T18:46:19.561Z,88.99
2019-05-28T18:48:47.655Z,88.81
2019-05-28T18:51:13.787Z,88.84
2019-05-28T18:53:40.015Z,88.90
2019-05-28T18:56:17.067Z,89.04
2019-05-28T18:58:35.684Z,88.84
2019-05-28T19:01:02.144Z,89.48
2019-05-28T19:03:28.277Z,89.77
2019-05-28T19:05:54.531Z,89.59
2019-05-28T19:08:20.757Z,89.51
2019-05-28T19:10:46.912Z,89.90
2019-05-28T19:13:13.206Z,89.81
2019-05-28T19:15:39.481Z,90.35
2019-05-28T19:18:05.753Z,90.31
2019-05-28T19:20:31.976Z,90.81
2019-05-28T19:22:58.122Z,91.01
2019-05-28T19:25:24.373Z,91.09
2019-05-28T19:27:50.750Z,91.00
2019-05-28T19:30:20.573Z,91.31
2019-05-28T19:32:46.808Z,91.05
2019-05-28T19:35:13.034Z,90.87
2019-05-28T19:37:40.580Z,91.30
2019-05-28T19:40:06.816Z,91.48
2019-05-28T19:42:33.050Z,91.73
2019-05-28T19:44:59.522Z,92.09
2019-05-28T19:47:25.791Z,92.79
2019-05-28T19:49:52.349Z,92.87
2019-05-28T19:52:18.584Z,92.56
2019-05-28T19:54:44.809Z,93.04
2019-05-28T19:57:11.032Z,92.77
2019-05-28T19:59:37.281Z,92.92
2019-05-28T20:02:03.521Z,93.03
2019-05-28T20:04:29.662Z,92.42
2019-05-28T20:06:55.895Z,92.36
2019-05-28T20:09:22.124Z,92.36
2019-05-28T20:11:48.367Z,92.87
2019-05-28T20:14:14.602Z,92.43
2019-05-28T20:16:40.840Z,92.64
2019-05-28T20:19:07.085Z,92.92
2019-05-28T20:21:33.203Z,92.54
2019-05-28T20:23:59.450Z,92.44
2019-05-28T20:26:25.670Z,92.16
2019-05-28T20:29:07.477Z,92.06
2019-05-28T20:31:19.974Z,92.22
2019-05-28T20:33:46.114Z,92.49
2019-05-28T20:36:12.341Z,92.56
2019-05-28T20:38:38.579Z,92.76
2019-05-28T20:41:06.044Z,92.77
2019-05-28T20:43:32.458Z,93.07
2019-05-28T20:45:58.700Z,93.11
2019-05-28T20:48:24.973Z,93.64
2019-05-28T20:51:06.759Z,93.33
2019-05-28T20:53:34.985Z,94.00
2019-05-28T20:55:52.072Z,94.29
2019-05-28T20:58:18.239Z,94.06
2019-05-28T21:00:44.499Z,93.81
2019-05-28T21:03:10.700Z,94.27
2019-05-28T21:05:36.942Z,94.62
2019-05-28T21:08:03.359Z,94.52
2019-05-28T21:10:29.558Z,94.78
2019-05-28T21:12:56.849Z,94.69
2019-05-28T21:15:23.085Z,94.92
2019-05-28T21:17:49.325Z,94.78
2019-05-28T21:20:15.568Z,94.85
2019-05-28T21:22:41.690Z,94.81
2019-05-28T21:25:08.139Z,94.61
2019-05-28T21:27:34.361Z,94.75
2019-05-28T21:30:00.506Z,95.00
2019-05-28T21:32:26.631Z,95.17
2019-05-28T21:34:57.291Z,95.23
2019-05-28T21:37:21.032Z,95.27
2019-05-28T21:39:47.158Z,95.62
2019-05-28T21:42:13.392Z,95.20
2019-05-28T21:44:39.632Z,95.40
2019-05-28T21:47:05.892Z,95.70
2019-05-28T21:49:32.115Z,95.62
2019-05-28T21:51:58.884Z,95.45
2019-05-28T21:54:25.185Z,95.18
2019-05-28T21:56:51.434Z,95.01
2019-05-28T21:59:17.557Z,95.16
2019-05-28T22:01:44.797Z,95.26
2019-05-28T22:04:11.071Z,95.30
2019-05-28T22:06:37.365Z,95.60
2019-05-28T22:09:06.360Z,95.46
2019-05-28T22:11:32.659Z,95.48
2019-05-28T22:14:00.038Z,95.41
2019-05-28T22:16:26.492Z,95.70
2019-05-28T22:18:52.718Z,95.54
2019-05-28T22:21:18.961Z,95.25
2019-05-28T22:23:45.221Z,95.40
2019-05-28T22:26:11.469Z,95.31
2019-05-28T22:28:37.719Z,95.43
2019-05-28T22:31:03.963Z,95.15
2019-05-28T22:33:30.222Z,95.11
2019-05-28T22:35:57.046Z,95.01
2019-05-28T22:38:23.532Z,95.14
2019-05-28T22:40:49.771Z,95.71
2019-05-28T22:43:30.439Z,95.65
2019-05-28T22:45:44.205Z,95.96
2019-05-28T22:48:16.032Z,95.84
2019-05-28T22:50:38.637Z,96.28
2019-05-28T22:53:06.105Z,96.31
2019-05-28T22:55:32.531Z,96.59
2019-05-28T22:57:58.794Z,96.45
2019-05-28T23:00:25.116Z,97.06
2019-05-28T23:02:51.359Z,97.19
2019-05-28T23:05:17.576Z,97.20
2019-05-28T23:07:43.804Z,97.69
2019-05-28T23:10:10.539Z,97.26
2019-05-28T23:12:36.764Z,97.85
2019-05-28T23:15:08.183Z,97.69
2019-05-28T23:17:34.339Z,97.58
2019-05-28T23:20:00.761Z,97.34
2019-05-28T23:22:27.001Z,97.51
2019-05-28T23:24:53.242Z,98.01
2019-05-28T23:27:19.462Z,98.31
2019-05-28T23:29:45.704Z,98.30
2019-05-28T23:32:12.480Z,98.23
2019-05-28T23:34:38.672Z,98.38
2019-05-28T23:37:06.373Z,98.55
2019-05-28T23:39:32.944Z,98.43
2019-05-28T23:41:59.198Z,98.66
2019-05-28T23:44:25.457Z,99.11
2019-05-28T23:46:51.792Z,99.03
2019-05-28T23:49:17.927Z,98.83
2019-05-28T23:51:44.052Z,99.09
2019-05-28T23:54:10.293Z,98.69
2019-05-28T23:56:36.522Z,98.85
2019-05-28T23:59:02.748Z,99.10
